createdAt,value
2019-03-30T00:00:24.873Z,77.18
2019-03-30T00:02:53.287Z,77.48
2019-03-30T00:05:21.675Z,77.42
2019-03-30T00:07:50.081Z,76.90
2019-03-30T00:10:22.303Z,77.04
2019-03-30T00:12:50.708Z,77.49
2019-03-30T00:15:19.112Z,76.97
2019-03-30T00:17:47.511Z,76.12
2019-03-30T00:20:15.921Z,76.16
2019-03-30T00:22:44.310Z,76.61
2019-03-30T00:25:12.710Z,76.65
2019-03-30T00:27:42.614Z,77.34
2019-03-30T00:30:11.371Z,78.11
2019-03-30T00:32:39.765Z,78.82
2019-03-30T00:35:08.742Z,78.31
2019-03-30T00:37:37.164Z,78.18
2019-03-30T00:40:06.704Z,78.73
2019-03-30T00:42:35.169Z,78.32
2019-03-30T00:45:04.381Z,76.69
2019-03-30T00:47:32.771Z,76.28
2019-03-30T00:50:01.197Z,76.23
2019-03-30T00:52:29.620Z,76.18
2019-03-30T00:54:58.021Z,76.49
2019-03-30T00:57:26.435Z,76.68
2019-03-30T00:59:54.839Z,76.88
2019-03-30T01:02:29.846Z,76.66
2019-03-30T01:04:57.522Z,76.84
2019-03-30T01:07:25.909Z,77.09
2019-03-30T01:09:54.386Z,76.65
2019-03-30T01:12:22.789Z,76.38
2019-03-30T01:14:51.172Z,76.46
2019-03-30T01:17:19.662Z,76.29
2019-03-30T01:20:01.924Z,77.03
2019-03-30T01:22:18.195Z,77.25
2019-03-30T01:24:46.600Z,77.25
2019-03-30T01:27:15.006Z,77.48
2019-03-30T01:29:43.393Z,77.29
2019-03-30T01:32:11.779Z,77.05
2019-03-30T01:34:40.232Z,76.67
2019-03-30T01:37:08.622Z,77.23
2019-03-30T01:39:37.547Z,77.15
2019-03-30T01:42:06.910Z,76.92
2019-03-30T01:44:38.139Z,77.10
2019-03-30T01:47:06.530Z,77.32
2019-03-30T01:49:34.931Z,77.80
2019-03-30T01:52:05.845Z,78.37
2019-03-30T01:54:34.240Z,78.24
2019-03-30T01:57:03.730Z,77.73
2019-03-30T01:59:32.148Z,77.17
2019-03-30T02:02:03.047Z,77.18
2019-03-30T02:04:31.425Z,77.23
2019-03-30T02:06:59.830Z,77.52
2019-03-30T02:09:28.224Z,77.45
2019-03-30T02:11:56.631Z,77.39
2019-03-30T02:14:25.022Z,77.19
2019-03-30T02:16:53.425Z,77.39
2019-03-30T02:19:24.521Z,77.39
2019-03-30T02:21:52.923Z,77.23
2019-03-30T02:24:21.322Z,77.16
2019-03-30T02:26:52.230Z,77.02
2019-03-30T02:29:20.616Z,76.83
2019-03-30T02:31:49.065Z,77.19
2019-03-30T02:34:17.503Z,77.94
2019-03-30T02:36:45.905Z,78.70
2019-03-30T02:39:14.350Z,78.93
2019-03-30T02:41:42.781Z,79.04
2019-03-30T02:44:11.181Z,78.85
2019-03-30T02:46:39.589Z,79.04
2019-03-30T02:49:07.988Z,78.55
2019-03-30T02:51:36.416Z,78.33
2019-03-30T02:54:07.573Z,78.10
2019-03-30T02:56:40.805Z,79.01
2019-03-30T02:59:09.247Z,79.22
2019-03-30T03:01:41.392Z,79.17
2019-03-30T03:04:09.789Z,79.03
2019-03-30T03:06:38.176Z,78.59
2019-03-30T03:09:09.184Z,78.08
2019-03-30T03:11:37.921Z,77.64
2019-03-30T03:14:06.501Z,76.93
2019-03-30T03:16:34.911Z,76.72
2019-03-30T03:19:05.130Z,76.89
2019-03-30T03:21:33.491Z,76.86
2019-03-30T03:24:01.884Z,76.80
2019-03-30T03:26:30.377Z,76.82
2019-03-30T03:28:58.796Z,76.84
2019-03-30T03:31:27.554Z,77.10
2019-03-30T03:33:56.154Z,77.32
2019-03-30T03:36:24.502Z,77.57
2019-03-30T03:38:52.931Z,77.31
2019-03-30T03:41:21.348Z,77.35
2019-03-30T03:43:49.737Z,77.82
2019-03-30T03:46:18.141Z,78.79
2019-03-30T03:48:50.437Z,78.90
2019-03-30T03:51:26.160Z,78.55
2019-03-30T03:53:50.263Z,78.19
2019-03-30T03:56:21.974Z,78.79
2019-03-30T03:58:51.512Z,78.67
2019-03-30T04:01:22.750Z,78.32
2019-03-30T04:03:53.225Z,78.95
2019-03-30T04:06:24.781Z,79.09
2019-03-30T04:08:55.951Z,79.00
2019-03-30T04:11:24.429Z,78.64
2019-03-30T04:13:54.692Z,78.55
2019-03-30T04:16:23.405Z,76.64
2019-03-30T04:18:52.914Z,73.78
2019-03-30T04:21:42.393Z,74.81
2019-03-30T04:23:55.573Z,76.54
2019-03-30T04:26:24.116Z,77.12
2019-03-30T04:28:52.522Z,77.40
2019-03-30T04:31:20.943Z,78.62
2019-03-30T04:33:49.383Z,79.23
2019-03-30T04:36:17.803Z,79.11
2019-03-30T04:38:46.198Z,78.79
2019-03-30T04:41:14.600Z,78.82
2019-03-30T04:43:43.042Z,78.73
2019-03-30T04:46:11.445Z,78.91
2019-03-30T04:48:39.878Z,79.01
2019-03-30T04:51:08.304Z,78.86
2019-03-30T04:53:36.728Z,78.37
2019-03-30T04:56:05.129Z,78.36
2019-03-30T04:58:34.551Z,79.15
2019-03-30T05:01:02.946Z,79.53
2019-03-30T05:03:31.360Z,79.69
2019-03-30T05:05:59.756Z,79.69
2019-03-30T05:08:28.188Z,79.79
2019-03-30T05:10:56.585Z,79.47
2019-03-30T05:13:28.713Z,79.16
2019-03-30T05:15:56.372Z,79.36
2019-03-30T05:18:24.751Z,77.94
2019-03-30T05:20:53.138Z,77.62
2019-03-30T05:23:21.557Z,77.65
2019-03-30T05:25:49.983Z,77.92
2019-03-30T05:28:18.383Z,77.81
2019-03-30T05:30:46.766Z,77.58
2019-03-30T05:33:15.189Z,77.45
2019-03-30T05:35:43.605Z,78.44
2019-03-30T05:38:11.997Z,78.64
2019-03-30T05:40:40.407Z,79.08
2019-03-30T05:43:08.817Z,79.46
2019-03-30T05:45:37.209Z,79.79
2019-03-30T05:48:05.609Z,79.85
2019-03-30T05:50:36.657Z,79.74
2019-03-30T05:53:06.163Z,78.65
2019-03-30T05:55:34.784Z,76.58
2019-03-30T05:58:04.251Z,73.66
2019-03-30T06:00:32.632Z,72.15
2019-03-30T06:03:03.580Z,72.58
2019-03-30T06:05:34.224Z,72.67
2019-03-30T06:08:02.703Z,72.59
2019-03-30T06:10:31.185Z,72.40
2019-03-30T06:13:00.038Z,72.66
2019-03-30T06:15:28.424Z,72.47
2019-03-30T06:17:56.840Z,72.80
2019-03-30T06:20:25.248Z,73.46
2019-03-30T06:22:53.689Z,77.04
2019-03-30T06:25:22.219Z,76.18
2019-03-30T06:27:53.098Z,73.58
2019-03-30T06:30:34.151Z,73.86
2019-03-30T06:33:02.559Z,72.47
2019-03-30T06:35:34.066Z,71.31
2019-03-30T06:38:03.574Z,68.80
2019-03-30T06:40:32.182Z,69.55
2019-03-30T06:43:00.547Z,67.79
2019-03-30T06:45:28.940Z,65.21
2019-03-30T06:51:16.101Z,62.65
2019-03-30T07:00:06.487Z,62.65
2019-03-30T07:09:17.941Z,62.65
2019-03-30T07:39:02.616Z,62.65
2019-03-30T07:41:32.046Z,62.65
2019-03-30T07:44:05.743Z,49.39
2019-03-30T07:46:37.312Z,49.03
2019-03-30T07:49:04.942Z,45.90
2019-03-30T07:51:33.772Z,44.08
2019-03-30T07:54:06.604Z,44.04
2019-03-30T07:56:35.001Z,43.53
2019-03-30T07:59:03.436Z,42.39
2019-03-30T08:01:31.897Z,41.55
2019-03-30T08:04:00.309Z,40.27
2019-03-30T08:06:28.769Z,39.62
2019-03-30T08:08:57.158Z,39.22
2019-03-30T08:11:25.644Z,37.56
2019-03-30T08:13:54.065Z,37.94
2019-03-30T08:16:22.482Z,36.65
2019-03-30T08:18:50.907Z,37.05
2019-03-30T08:21:19.329Z,37.63
2019-03-30T08:23:48.806Z,38.09
2019-03-30T08:26:17.191Z,41.18
2019-03-30T08:28:45.650Z,42.96
2019-03-30T08:31:14.171Z,42.53
2019-03-30T08:33:46.921Z,42.12
2019-03-30T08:36:15.330Z,41.79
2019-03-30T08:38:46.152Z,41.81
2019-03-30T08:41:13.887Z,42.63
2019-03-30T08:43:44.873Z,42.91
2019-03-30T08:46:13.272Z,44.24
2019-03-30T08:48:41.706Z,45.12
2019-03-30T08:51:11.202Z,46.71
2019-03-30T08:53:54.765Z,48.18
2019-03-30T08:56:23.512Z,48.83
2019-03-30T08:58:52.360Z,48.92
2019-03-30T09:01:20.779Z,50.97
2019-03-30T09:03:49.161Z,50.02
2019-03-30T09:06:17.574Z,49.34
2019-03-30T09:08:45.972Z,49.39
2019-03-30T09:11:14.364Z,51.30
2019-03-30T09:13:46.528Z,50.11
2019-03-30T09:16:14.975Z,51.17
2019-03-30T09:18:43.445Z,51.19
2019-03-30T09:21:14.358Z,50.09
2019-03-30T09:23:42.783Z,50.95
2019-03-30T09:26:11.172Z,51.70
2019-03-30T09:28:42.051Z,51.80
2019-03-30T09:31:14.831Z,51.00
2019-03-30T09:33:43.255Z,49.73
2019-03-30T09:36:11.689Z,49.45
2019-03-30T09:38:40.114Z,49.19
2019-03-30T09:41:11.222Z,49.43
2019-03-30T09:43:39.630Z,50.42
2019-03-30T09:46:08.044Z,49.83
2019-03-30T09:48:37.524Z,47.80
2019-03-30T09:51:05.940Z,47.95
2019-03-30T09:53:34.339Z,47.95
2019-03-30T09:56:06.620Z,48.21
2019-03-30T09:58:35.027Z,47.01
2019-03-30T10:01:03.421Z,46.14
2019-03-30T10:03:31.823Z,46.86
2019-03-30T10:06:01.252Z,47.87
2019-03-30T10:08:29.638Z,45.31
2019-03-30T10:10:58.044Z,46.29
2019-03-30T10:13:29.414Z,45.81
2019-03-30T10:15:57.836Z,44.54
2019-03-30T10:18:26.224Z,47.00
2019-03-30T10:20:57.404Z,46.48
2019-03-30T10:23:25.808Z,45.11
2019-03-30T10:25:54.222Z,43.63
2019-03-30T10:28:23.071Z,43.32
2019-03-30T10:30:51.470Z,44.23
2019-03-30T10:33:19.959Z,46.53
2019-03-30T10:35:53.727Z,45.64
2019-03-30T10:38:22.133Z,46.27
2019-03-30T10:40:50.545Z,46.15
2019-03-30T10:43:21.457Z,46.02
2019-03-30T10:45:49.853Z,44.94
2019-03-30T10:48:18.266Z,45.95
2019-03-30T10:50:47.458Z,44.90
2019-03-30T10:53:15.866Z,46.44
2019-03-30T10:55:44.589Z,46.70
2019-03-30T10:58:12.970Z,44.37
2019-03-30T11:00:43.019Z,45.29
2019-03-30T11:03:11.417Z,44.15
2019-03-30T11:05:39.962Z,41.93
2019-03-30T11:08:08.350Z,43.87
2019-03-30T11:10:37.905Z,42.63
2019-03-30T11:13:07.274Z,42.34
2019-03-30T11:15:35.672Z,43.69
2019-03-30T11:18:04.245Z,42.35
2019-03-30T11:20:36.136Z,41.15
2019-03-30T11:23:04.535Z,40.69
2019-03-30T11:25:32.950Z,40.41
2019-03-30T11:28:01.390Z,42.09
2019-03-30T11:30:29.795Z,41.84
2019-03-30T11:32:58.307Z,43.74
2019-03-30T11:35:26.732Z,40.32
2019-03-30T11:37:55.205Z,39.96
2019-03-30T11:40:23.601Z,41.25
2019-03-30T11:42:52.008Z,42.85
2019-03-30T11:45:20.407Z,42.08
2019-03-30T11:47:51.278Z,41.27
2019-03-30T11:50:22.448Z,40.89
2019-03-30T11:52:50.870Z,41.96
2019-03-30T11:55:22.263Z,39.10
2019-03-30T11:57:50.353Z,38.98
2019-03-30T12:00:18.885Z,39.56
2019-03-30T12:02:47.301Z,41.25
2019-03-30T12:05:15.724Z,40.17
2019-03-30T12:07:48.111Z,40.42
2019-03-30T12:10:16.490Z,39.46
2019-03-30T12:12:48.374Z,38.68
2019-03-30T12:15:16.848Z,40.48
2019-03-30T12:17:45.312Z,38.11
2019-03-30T12:20:14.001Z,38.57
2019-03-30T12:22:42.563Z,37.14
2019-03-30T12:25:10.963Z,38.94
2019-03-30T12:27:39.379Z,39.25
2019-03-30T12:30:08.225Z,39.85
2019-03-30T12:32:36.630Z,36.04
2019-03-30T12:35:07.200Z,38.53
2019-03-30T12:37:36.076Z,39.04
2019-03-30T12:40:07.283Z,39.04
2019-03-30T12:42:35.690Z,39.04
2019-03-30T12:45:06.220Z,41.21
2019-03-30T12:47:37.526Z,38.70
2019-03-30T12:50:07.078Z,39.13
2019-03-30T12:52:36.408Z,39.09
2019-03-30T12:55:05.258Z,36.31
2019-03-30T12:57:33.665Z,36.31
2019-03-30T13:00:02.146Z,39.96
2019-03-30T13:02:34.402Z,39.96
2019-03-30T13:05:02.829Z,39.96
2019-03-30T13:07:31.269Z,36.98
2019-03-30T13:09:59.654Z,37.74
2019-03-30T13:12:28.084Z,35.43
2019-03-30T13:14:56.465Z,35.43
2019-03-30T13:17:24.885Z,37.37
2019-03-30T13:19:54.277Z,37.21
2019-03-30T13:22:22.712Z,38.14
2019-03-30T13:24:52.138Z,37.99
2019-03-30T13:27:23.151Z,39.38
2019-03-30T13:29:51.648Z,40.42
2019-03-30T13:32:23.919Z,36.74
2019-03-30T13:34:51.563Z,39.00
2019-03-30T13:37:20.366Z,38.22
2019-03-30T13:39:48.767Z,38.82
2019-03-30T13:42:19.106Z,37.71
2019-03-30T13:44:49.455Z,40.63
2019-03-30T13:47:17.860Z,38.01
2019-03-30T13:49:46.518Z,40.14
2019-03-30T13:52:14.938Z,38.91
2019-03-30T13:54:43.357Z,38.78
2019-03-30T13:57:11.758Z,38.91
2019-03-30T13:59:40.159Z,36.02
2019-03-30T14:02:09.641Z,37.09
2019-03-30T14:04:38.058Z,37.09
2019-03-30T14:07:07.394Z,35.54
2019-03-30T14:09:36.867Z,35.28
2019-03-30T14:12:05.269Z,35.40
2019-03-30T14:14:43.336Z,36.70
2019-03-30T14:17:11.710Z,35.93
2019-03-30T14:19:40.098Z,37.78
2019-03-30T14:22:11.025Z,37.78
2019-03-30T14:24:42.187Z,37.78
2019-03-30T14:27:10.580Z,37.78
2019-03-30T14:29:38.984Z,36.13
2019-03-30T14:32:18.022Z,36.13
2019-03-30T14:35:10.363Z,36.13
2019-03-30T14:37:46.188Z,36.13
2019-03-30T14:41:05.247Z,37.25
2019-03-30T14:43:33.647Z,37.25
2019-03-30T14:46:02.040Z,37.92
2019-03-30T14:48:30.471Z,39.52
2019-03-30T14:50:58.881Z,40.05
2019-03-30T14:53:27.329Z,40.75
2019-03-30T14:56:00.435Z,40.17
2019-03-30T14:58:47.344Z,40.17
2019-03-30T15:01:17.402Z,40.17
2019-03-30T15:03:53.485Z,39.78
2019-03-30T15:06:21.894Z,39.78
2019-03-30T15:08:51.349Z,40.81
2019-03-30T15:11:19.747Z,38.48
2019-03-30T15:13:48.153Z,37.89
2019-03-30T15:16:16.559Z,38.89
2019-03-30T15:18:44.946Z,39.49
2019-03-30T15:21:13.378Z,40.75
2019-03-30T15:23:41.775Z,38.69
2019-03-30T15:26:10.176Z,38.58
2019-03-30T15:28:38.615Z,39.76
2019-03-30T15:31:11.097Z,38.39
2019-03-30T15:33:39.494Z,38.39
2019-03-30T15:36:07.934Z,39.33
2019-03-30T15:38:36.325Z,39.55
2019-03-30T15:41:10.159Z,40.36
2019-03-30T15:43:38.948Z,40.36
2019-03-30T15:46:07.465Z,39.65
2019-03-30T15:48:36.900Z,40.24
2019-03-30T15:51:05.248Z,39.53
2019-03-30T15:53:33.670Z,39.11
2019-03-30T15:56:02.072Z,39.49
2019-03-30T15:58:33.091Z,41.21
2019-03-30T16:01:02.905Z,40.25
2019-03-30T16:03:31.308Z,41.11
2019-03-30T16:06:03.194Z,40.14
2019-03-30T16:08:31.685Z,40.30
2019-03-30T16:11:00.072Z,41.66
2019-03-30T16:13:37.488Z,41.27
2019-03-30T16:16:09.419Z,41.27
2019-03-30T16:18:37.777Z,41.04
2019-03-30T16:21:06.173Z,41.83
2019-03-30T16:23:34.608Z,42.58
2019-03-30T16:26:03.038Z,42.48
2019-03-30T16:28:35.188Z,42.82
2019-03-30T16:31:03.618Z,41.90
2019-03-30T16:33:34.092Z,42.33
2019-03-30T16:36:03.424Z,42.17
2019-03-30T16:38:31.808Z,42.74
2019-03-30T16:41:00.357Z,42.20
2019-03-30T16:43:28.778Z,42.97
2019-03-30T16:45:57.187Z,43.11
2019-03-30T16:48:33.927Z,43.67
2019-03-30T16:51:04.891Z,45.51
2019-03-30T16:53:37.040Z,44.19
2019-03-30T16:57:02.536Z,46.60
2019-03-30T17:00:23.041Z,46.60
2019-03-30T17:03:48.023Z,46.60
2019-03-30T17:06:16.416Z,46.60
2019-03-30T17:08:47.573Z,46.31
2019-03-30T17:11:16.940Z,46.31
2019-03-30T17:13:45.331Z,46.79
2019-03-30T17:16:16.575Z,46.64
2019-03-30T17:19:02.889Z,46.64
2019-03-30T17:21:32.295Z,47.65
2019-03-30T17:24:00.701Z,47.65
2019-03-30T17:26:29.148Z,47.46
2019-03-30T17:28:59.663Z,47.01
2019-03-30T17:31:28.078Z,47.09
2019-03-30T17:34:00.090Z,48.15
2019-03-30T17:36:28.496Z,48.52
2019-03-30T17:38:56.955Z,48.01
2019-03-30T17:41:25.418Z,48.01
2019-03-30T17:44:00.616Z,47.51
2019-03-30T17:46:29.041Z,47.51
2019-03-30T17:48:57.468Z,48.63
2019-03-30T17:51:28.369Z,50.27
2019-03-30T17:53:56.792Z,50.27
2019-03-30T17:56:29.852Z,50.27
2019-03-30T18:00:43.105Z,50.27
2019-03-30T18:05:25.061Z,50.27
2019-03-30T18:07:55.067Z,50.27
2019-03-30T18:10:23.403Z,59.77
2019-03-30T18:14:25.218Z,60.01
2019-03-30T18:16:53.662Z,60.01
2019-03-30T18:20:12.833Z,60.70
2019-03-30T18:24:00.423Z,60.70
2019-03-30T18:26:29.620Z,60.70
2019-03-30T18:30:45.858Z,61.72
2019-03-30T18:33:38.116Z,61.72
2019-03-30T18:36:21.264Z,61.72
2019-03-30T18:40:33.654Z,61.72
2019-03-30T18:43:03.792Z,61.72
2019-03-30T18:45:33.496Z,60.58
2019-03-30T18:48:13.473Z,60.58
2019-03-30T18:50:43.424Z,60.95
2019-03-30T18:53:12.890Z,61.13
2019-03-30T18:55:44.565Z,61.11
2019-03-30T18:58:41.786Z,61.20
2019-03-30T19:01:07.055Z,61.20
2019-03-30T19:03:35.560Z,61.62
2019-03-30T19:06:08.805Z,61.47
2019-03-30T19:08:37.204Z,61.47
2019-03-30T19:11:05.627Z,61.73
2019-03-30T19:13:37.897Z,61.96
2019-03-30T19:16:09.465Z,62.22
2019-03-30T19:18:37.900Z,61.93
2019-03-30T19:21:06.359Z,62.07
2019-03-30T19:23:35.929Z,61.78
2019-03-30T19:26:50.765Z,62.14
2019-03-30T19:29:26.898Z,62.14
2019-03-30T19:31:57.701Z,62.14
2019-03-30T19:34:51.109Z,62.52
2019-03-30T19:37:23.105Z,62.52
2019-03-30T19:39:56.083Z,62.72
2019-03-30T19:42:27.123Z,62.72
2019-03-30T19:44:56.610Z,62.72
2019-03-30T19:47:25.027Z,61.87
2019-03-30T19:49:53.650Z,62.02
2019-03-30T19:52:22.110Z,62.05
2019-03-30T19:54:52.931Z,61.95
2019-03-30T19:57:27.452Z,62.21
2019-03-30T19:59:55.470Z,62.19
2019-03-30T20:02:32.149Z,62.79
2019-03-30T20:05:04.095Z,62.69
2019-03-30T20:07:41.358Z,62.85
2019-03-30T20:10:08.400Z,62.59
2019-03-30T20:12:37.723Z,63.37
2019-03-30T20:15:07.943Z,63.31
2019-03-30T20:17:36.383Z,63.54
2019-03-30T20:20:05.854Z,63.69
2019-03-30T20:22:36.966Z,64.32
2019-03-30T20:25:08.732Z,64.23
2019-03-30T20:27:38.190Z,64.57
2019-03-30T20:30:08.767Z,64.48
2019-03-30T20:32:37.360Z,64.96
2019-03-30T20:35:08.412Z,65.63
2019-03-30T20:37:40.272Z,65.31
2019-03-30T20:40:12.070Z,65.45
2019-03-30T20:42:44.596Z,65.89
2019-03-30T20:45:13.748Z,66.15
2019-03-30T20:47:42.106Z,65.96
2019-03-30T20:50:13.665Z,66.79
2019-03-30T20:52:42.203Z,66.74
2019-03-30T20:55:10.851Z,67.34
2019-03-30T20:57:39.276Z,67.51
2019-03-30T21:00:10.476Z,67.26
2019-03-30T21:02:43.862Z,67.34
2019-03-30T21:05:15.445Z,68.09
2019-03-30T21:07:45.062Z,68.23
2019-03-30T21:10:13.834Z,68.91
2019-03-30T21:12:44.740Z,68.74
2019-03-30T21:15:18.012Z,68.88
2019-03-30T21:17:46.409Z,68.96
2019-03-30T21:20:23.078Z,69.35
2019-03-30T21:22:55.041Z,69.86
2019-03-30T21:25:23.547Z,69.95
2019-03-30T21:27:51.884Z,69.53
2019-03-30T21:30:21.049Z,70.02
2019-03-30T21:32:49.443Z,70.83
2019-03-30T21:35:18.785Z,70.99
2019-03-30T21:37:47.178Z,71.11
2019-03-30T21:40:15.592Z,71.33
2019-03-30T21:42:47.691Z,72.10
2019-03-30T21:45:16.097Z,72.54
2019-03-30T21:47:44.490Z,72.53
2019-03-30T21:50:13.236Z,72.64
2019-03-30T21:52:41.699Z,72.79
2019-03-30T21:55:10.320Z,72.78
2019-03-30T21:57:41.116Z,72.21
2019-03-30T22:00:11.448Z,72.35
2019-03-30T22:02:39.972Z,72.73
2019-03-30T22:05:08.505Z,72.47
2019-03-30T22:07:38.655Z,72.95
2019-03-30T22:10:08.895Z,73.46
2019-03-30T22:12:42.499Z,73.91
2019-03-30T22:15:26.217Z,73.61
2019-03-30T22:17:55.651Z,73.61
2019-03-30T22:20:24.874Z,73.61
2019-03-30T22:22:53.265Z,74.07
2019-03-30T22:25:27.797Z,74.53
2019-03-30T22:27:57.134Z,74.53
2019-03-30T22:30:25.620Z,74.77
2019-03-30T22:32:55.431Z,75.02
2019-03-30T22:35:24.933Z,75.02
2019-03-30T22:37:53.381Z,74.83
2019-03-30T22:40:21.785Z,74.85
2019-03-30T22:42:51.167Z,74.96
2019-03-30T22:45:20.754Z,75.75
2019-03-30T22:47:51.587Z,76.06
2019-03-30T22:50:22.493Z,75.82
2019-03-30T22:52:50.884Z,76.17
2019-03-30T22:55:22.780Z,76.09
2019-03-30T22:57:51.201Z,75.96
2019-03-30T23:00:41.449Z,75.68
2019-03-30T23:03:11.169Z,76.35
2019-03-30T23:05:40.053Z,75.68
2019-03-30T23:08:10.969Z,76.21
2019-03-30T23:10:40.282Z,76.19
2019-03-30T23:13:12.994Z,76.89
2019-03-30T23:15:42.473Z,76.38
2019-03-30T23:18:11.378Z,76.72
2019-03-30T23:20:40.745Z,77.15
2019-03-30T23:23:09.153Z,77.49
2019-03-30T23:25:37.584Z,77.82
2019-03-30T23:28:05.985Z,77.60
2019-03-30T23:30:34.394Z,77.45
2019-03-30T23:33:05.349Z,78.14
2019-03-30T23:35:34.643Z,77.91
2019-03-30T23:38:05.655Z,77.52
2019-03-30T23:40:34.046Z,77.12
2019-03-30T23:43:03.431Z,76.76
2019-03-30T23:45:32.793Z,76.43
2019-03-30T23:48:01.481Z,76.22
2019-03-30T23:50:29.949Z,76.43
2019-03-30T23:52:58.337Z,76.34
2019-03-30T23:55:26.736Z,76.32
2019-03-30T23:57:55.145Z,76.02
